createdAt,value
2019-03-20T00:00:36.274Z,8.20
2019-03-20T00:03:05.787Z,8.27
2019-03-20T00:05:35.034Z,8.40
2019-03-20T00:08:04.222Z,6.33
2019-03-20T00:10:33.497Z,9.70
2019-03-20T00:13:02.789Z,11.63
2019-03-20T00:15:32.082Z,7.20
2019-03-20T00:18:01.312Z,10.13
2019-03-20T00:20:30.594Z,7.23
2019-03-20T00:22:59.795Z,11.30
2019-03-20T00:25:29.022Z,6.70
2019-03-20T00:27:58.219Z,8.83
2019-03-20T00:30:27.488Z,8.87
2019-03-20T00:32:56.762Z,9.70
2019-03-20T00:35:25.982Z,8.37
2019-03-20T00:37:55.262Z,9.60
2019-03-20T00:40:24.486Z,12.63
2019-03-20T00:42:53.773Z,8.17
2019-03-20T00:45:22.983Z,7.53
2019-03-20T00:47:52.264Z,10.47
2019-03-20T00:50:21.587Z,7.77
2019-03-20T00:52:50.865Z,5.77
2019-03-20T00:55:20.064Z,8.43
2019-03-20T00:57:49.280Z,11.00
2019-03-20T01:00:18.583Z,7.30
2019-03-20T01:02:47.888Z,13.73
2019-03-20T01:05:17.183Z,9.40
2019-03-20T01:07:46.398Z,8.90
2019-03-20T01:10:17.191Z,9.33
2019-03-20T01:12:46.522Z,10.63
2019-03-20T01:15:15.719Z,8.37
2019-03-20T01:17:45.028Z,8.83
2019-03-20T01:20:15.797Z,8.97
2019-03-20T01:22:45.029Z,6.87
2019-03-20T01:25:14.777Z,8.07
2019-03-20T01:27:43.949Z,7.67
2019-03-20T01:30:33.599Z,7.47
2019-03-20T01:33:04.380Z,9.43
2019-03-20T01:35:33.606Z,6.67
2019-03-20T01:38:02.809Z,10.00
2019-03-20T01:40:31.999Z,3.97
2019-03-20T01:43:01.178Z,7.13
2019-03-20T01:45:30.371Z,9.00
2019-03-20T01:47:59.582Z,9.83
2019-03-20T01:50:28.905Z,15.00
2019-03-20T01:52:58.110Z,9.30
2019-03-20T01:55:27.325Z,6.17
2019-03-20T01:57:56.541Z,9.00
2019-03-20T02:00:25.839Z,8.90
2019-03-20T02:02:55.065Z,10.27
2019-03-20T02:05:34.698Z,8.10
2019-03-20T02:07:53.559Z,11.00
2019-03-20T02:10:22.817Z,8.33
2019-03-20T02:12:51.999Z,11.73
2019-03-20T02:15:21.191Z,10.43
2019-03-20T02:17:50.402Z,9.13
2019-03-20T02:20:19.612Z,12.97
2019-03-20T02:22:48.819Z,11.13
2019-03-20T02:25:18.030Z,12.23
2019-03-20T02:27:47.246Z,8.63
2019-03-20T02:30:16.574Z,11.67
2019-03-20T02:32:45.789Z,7.47
2019-03-20T02:35:14.987Z,8.67
2019-03-20T02:37:44.205Z,8.50
2019-03-20T02:40:13.437Z,6.83
2019-03-20T02:42:42.633Z,8.43
2019-03-20T02:45:12.290Z,9.17
2019-03-20T02:47:41.581Z,12.00
2019-03-20T02:50:10.795Z,8.33
2019-03-20T02:52:40.066Z,7.63
2019-03-20T02:55:09.320Z,6.73
2019-03-20T02:57:38.619Z,11.40
2019-03-20T03:00:09.668Z,14.03
2019-03-20T03:02:38.961Z,14.17
2019-03-20T03:05:08.678Z,9.93
2019-03-20T03:07:38.025Z,7.83
2019-03-20T03:10:08.360Z,15.00
2019-03-20T03:12:37.643Z,10.40
2019-03-20T03:15:06.913Z,8.70
2019-03-20T03:17:36.122Z,8.57
2019-03-20T03:20:05.707Z,16.97
2019-03-20T03:22:34.925Z,11.53
2019-03-20T03:25:04.755Z,9.77
2019-03-20T03:27:33.953Z,10.97
2019-03-20T03:30:03.283Z,4.83
2019-03-20T03:32:32.556Z,7.40
2019-03-20T03:35:01.777Z,13.53
2019-03-20T03:37:30.994Z,11.37
2019-03-20T03:40:00.604Z,10.00
2019-03-20T03:42:29.445Z,6.63
2019-03-20T03:44:58.631Z,11.03
2019-03-20T03:47:27.817Z,7.63
2019-03-20T03:49:57.088Z,7.83
2019-03-20T03:52:26.288Z,14.37
2019-03-20T03:54:55.506Z,10.57
2019-03-20T03:57:24.711Z,9.33
2019-03-20T03:59:53.936Z,11.30
2019-03-20T04:02:23.162Z,11.60
2019-03-20T04:04:52.364Z,10.80
2019-03-20T04:07:23.715Z,12.10
2019-03-20T04:09:50.787Z,10.40
2019-03-20T04:12:19.962Z,8.20
2019-03-20T04:14:49.151Z,7.43
2019-03-20T04:17:26.516Z,10.70
2019-03-20T04:19:55.763Z,11.90
2019-03-20T04:22:24.963Z,10.10
2019-03-20T04:24:54.208Z,9.03
2019-03-20T04:27:23.445Z,10.00
2019-03-20T04:29:52.784Z,11.33
2019-03-20T04:32:21.995Z,15.90
2019-03-20T04:34:51.216Z,13.87
2019-03-20T04:37:20.390Z,8.67
2019-03-20T04:39:49.614Z,12.10
2019-03-20T04:42:18.940Z,10.40
2019-03-20T04:44:48.153Z,10.67
2019-03-20T04:47:17.404Z,10.23
2019-03-20T04:49:46.741Z,8.97
2019-03-20T04:52:16.021Z,7.73
2019-03-20T04:54:47.902Z,10.27
2019-03-20T04:57:16.996Z,13.23
2019-03-20T04:59:46.302Z,8.93
2019-03-20T05:02:15.572Z,12.70
2019-03-20T05:04:44.801Z,8.77
2019-03-20T05:07:14.068Z,8.57
2019-03-20T05:09:43.293Z,10.53
2019-03-20T05:12:12.582Z,11.13
2019-03-20T05:14:41.794Z,11.73
2019-03-20T05:17:10.992Z,11.93
2019-03-20T05:19:40.245Z,7.70
2019-03-20T05:22:09.451Z,10.23
2019-03-20T05:24:38.702Z,10.47
2019-03-20T05:27:07.944Z,9.50
2019-03-20T05:29:37.145Z,14.97
2019-03-20T05:32:06.343Z,10.27
2019-03-20T05:34:35.578Z,12.67
2019-03-20T05:37:10.232Z,8.70
2019-03-20T05:39:34.094Z,11.30
2019-03-20T05:42:03.380Z,12.83
2019-03-20T05:44:32.682Z,12.33
2019-03-20T05:47:01.995Z,14.07
2019-03-20T05:49:31.286Z,11.60
2019-03-20T05:52:00.485Z,10.60
2019-03-20T05:54:29.793Z,15.27
2019-03-20T05:56:58.981Z,15.83
2019-03-20T05:59:28.244Z,12.90
2019-03-20T06:01:57.443Z,11.30
2019-03-20T06:04:26.661Z,13.33
2019-03-20T06:06:55.868Z,14.07
2019-03-20T06:09:25.106Z,13.97
2019-03-20T06:11:54.364Z,14.10
2019-03-20T06:14:23.602Z,10.77
2019-03-20T06:16:52.788Z,17.00
2019-03-20T06:19:22.038Z,11.90
2019-03-20T06:21:51.220Z,14.03
2019-03-20T06:24:20.560Z,13.90
2019-03-20T06:26:49.775Z,13.40
2019-03-20T06:29:20.183Z,16.03
2019-03-20T06:31:48.209Z,9.83
2019-03-20T06:34:17.389Z,17.40
2019-03-20T06:36:46.637Z,14.83
2019-03-20T06:39:15.908Z,12.00
2019-03-20T06:41:45.178Z,18.13
2019-03-20T06:44:14.459Z,16.67
2019-03-20T06:46:43.698Z,16.90
2019-03-20T06:49:12.919Z,18.53
2019-03-20T06:51:42.132Z,20.17
2019-03-20T06:54:11.463Z,14.27
2019-03-20T06:56:40.717Z,17.47
2019-03-20T07:00:10.706Z,17.23
2019-03-20T07:02:42.930Z,24.97
2019-03-20T07:05:54.173Z,17.33
2019-03-20T07:08:24.849Z,17.73
2019-03-20T07:11:05.996Z,17.23
2019-03-20T07:13:35.287Z,16.03
2019-03-20T07:16:04.848Z,19.63
2019-03-20T07:18:34.077Z,20.80
2019-03-20T07:21:03.309Z,22.77
2019-03-20T07:23:32.634Z,17.80
2019-03-20T07:26:01.852Z,21.67
2019-03-20T07:28:31.135Z,18.23
2019-03-20T07:31:00.465Z,16.13
2019-03-20T07:33:29.768Z,20.23
2019-03-20T07:35:59.285Z,22.23
2019-03-20T07:38:28.465Z,25.23
2019-03-20T07:40:57.717Z,23.07
2019-03-20T07:43:27.212Z,20.13
2019-03-20T07:45:56.157Z,21.07
2019-03-20T07:48:25.445Z,21.37
2019-03-20T07:50:54.766Z,18.03
2019-03-20T07:53:23.997Z,22.10
2019-03-20T07:55:53.251Z,22.83
2019-03-20T07:58:22.587Z,20.57
2019-03-20T08:00:51.799Z,21.83
2019-03-20T08:03:21.092Z,24.77
2019-03-20T08:05:50.375Z,17.60
2019-03-20T08:08:19.795Z,20.33
2019-03-20T08:10:49.057Z,22.73
2019-03-20T08:13:18.317Z,19.43
2019-03-20T08:15:47.691Z,24.10
2019-03-20T08:18:17.086Z,17.57
2019-03-20T08:20:46.397Z,27.63
2019-03-20T08:23:15.679Z,20.80
2019-03-20T08:25:52.340Z,16.83
2019-03-20T08:28:15.287Z,24.07
2019-03-20T08:30:44.619Z,22.27
2019-03-20T08:33:13.865Z,19.20
2019-03-20T08:35:43.168Z,23.30
2019-03-20T08:38:18.320Z,17.63
2019-03-20T08:40:41.868Z,23.50
2019-03-20T08:43:11.107Z,17.00
2019-03-20T08:45:40.334Z,19.73
2019-03-20T08:48:09.625Z,20.37
2019-03-20T08:50:38.863Z,19.30
2019-03-20T08:53:08.152Z,18.30
2019-03-20T08:55:37.409Z,24.73
2019-03-20T08:58:06.683Z,21.20
2019-03-20T09:00:36.008Z,21.73
2019-03-20T09:03:05.332Z,19.90
2019-03-20T09:05:34.621Z,18.37
2019-03-20T09:08:03.935Z,17.50
2019-03-20T09:10:33.238Z,19.23
2019-03-20T09:13:02.507Z,16.27
2019-03-20T09:15:31.837Z,16.10
2019-03-20T09:18:01.111Z,19.80
2019-03-20T09:20:30.359Z,17.33
2019-03-20T09:22:59.713Z,16.70
2019-03-20T09:25:28.934Z,20.80
2019-03-20T09:27:58.126Z,17.17
2019-03-20T09:30:27.391Z,13.40
2019-03-20T09:32:56.609Z,19.63
2019-03-20T09:35:25.809Z,14.93
2019-03-20T09:37:55.039Z,15.40
2019-03-20T09:40:24.318Z,15.27
2019-03-20T09:42:53.540Z,15.47
2019-03-20T09:45:22.769Z,14.93
2019-03-20T09:47:52.025Z,17.40
2019-03-20T09:50:21.313Z,15.77
2019-03-20T09:52:50.614Z,15.50
2019-03-20T09:55:19.959Z,19.10
2019-03-20T09:57:49.209Z,12.93
2019-03-20T10:00:22.653Z,14.50
2019-03-20T10:02:51.881Z,10.97
2019-03-20T10:05:21.147Z,11.43
2019-03-20T10:07:50.409Z,16.17
2019-03-20T10:10:20.749Z,17.37
2019-03-20T10:12:49.977Z,16.20
2019-03-20T10:15:19.361Z,14.50
2019-03-20T10:17:48.644Z,13.67
2019-03-20T10:20:18.755Z,14.73
2019-03-20T10:22:47.976Z,16.20
2019-03-20T10:25:17.221Z,14.70
2019-03-20T10:27:46.462Z,15.77
2019-03-20T10:30:17.701Z,14.37
2019-03-20T10:32:46.928Z,13.80
2019-03-20T10:35:16.208Z,14.67
2019-03-20T10:37:45.486Z,12.83
2019-03-20T10:40:16.647Z,16.67
2019-03-20T10:42:45.978Z,16.27
2019-03-20T10:45:15.262Z,16.03
2019-03-20T10:47:44.575Z,14.23
2019-03-20T10:50:15.917Z,16.40
2019-03-20T10:52:45.223Z,14.20
2019-03-20T10:55:14.589Z,15.67
2019-03-20T10:57:43.902Z,10.43
2019-03-20T11:00:17.929Z,14.77
2019-03-20T11:02:47.171Z,11.93
2019-03-20T11:05:16.617Z,14.33
2019-03-20T11:07:45.889Z,13.57
2019-03-20T11:10:19.329Z,13.77
2019-03-20T11:12:48.623Z,11.37
2019-03-20T11:15:17.932Z,17.00
2019-03-20T11:17:47.139Z,13.07
2019-03-20T11:20:16.821Z,12.13
2019-03-20T11:22:46.257Z,11.27
2019-03-20T11:25:16.646Z,8.30
2019-03-20T11:27:45.989Z,13.30
2019-03-20T11:30:22.635Z,10.93
2019-03-20T11:32:51.880Z,11.53
2019-03-20T11:35:21.178Z,8.27
2019-03-20T11:37:50.435Z,13.20
2019-03-20T11:40:24.722Z,10.77
2019-03-20T11:42:53.924Z,13.23
2019-03-20T11:45:23.709Z,11.37
2019-03-20T11:47:52.459Z,9.67
2019-03-20T11:50:30.053Z,14.30
2019-03-20T11:52:59.235Z,12.67
2019-03-20T11:55:28.506Z,16.20
2019-03-20T11:57:57.693Z,13.33
2019-03-20T12:00:26.963Z,14.47
2019-03-20T12:02:56.249Z,10.37
2019-03-20T12:05:25.569Z,12.13
2019-03-20T12:07:54.762Z,11.27
2019-03-20T12:10:24.043Z,11.43
2019-03-20T12:12:53.355Z,8.50
2019-03-20T12:15:22.629Z,9.90
2019-03-20T12:17:51.859Z,12.20
2019-03-20T12:20:21.100Z,12.03
2019-03-20T12:22:50.351Z,11.10
2019-03-20T12:25:21.605Z,13.70
2019-03-20T12:27:50.838Z,8.53
2019-03-20T12:30:21.709Z,11.97
2019-03-20T12:32:50.963Z,9.03
2019-03-20T12:35:20.229Z,15.17
2019-03-20T12:37:49.507Z,9.93
2019-03-20T12:40:20.819Z,12.90
2019-03-20T12:42:50.090Z,10.63
2019-03-20T12:45:20.615Z,8.80
2019-03-20T12:47:49.849Z,14.93
2019-03-20T12:50:19.107Z,12.00
2019-03-20T12:52:48.399Z,10.67
2019-03-20T12:55:17.713Z,10.20
2019-03-20T12:57:47.059Z,10.60
2019-03-20T13:00:18.059Z,11.00
2019-03-20T13:02:47.321Z,10.00
2019-03-20T13:05:16.584Z,9.37
2019-03-20T13:07:45.856Z,7.97
2019-03-20T13:10:16.575Z,9.73
2019-03-20T13:12:46.028Z,9.93
2019-03-20T13:15:17.261Z,10.10
2019-03-20T13:17:46.557Z,10.43
2019-03-20T13:20:15.855Z,14.43
2019-03-20T13:22:46.475Z,13.43
2019-03-20T13:25:16.028Z,13.43
2019-03-20T13:27:45.246Z,13.30
2019-03-20T13:30:25.767Z,11.03
2019-03-20T13:32:55.026Z,11.47
2019-03-20T13:35:24.593Z,11.30
2019-03-20T13:37:53.807Z,14.80
2019-03-20T13:40:23.068Z,12.97
2019-03-20T13:42:52.365Z,9.87
2019-03-20T13:45:21.765Z,11.57
2019-03-20T13:47:51.084Z,11.67
2019-03-20T13:50:20.584Z,10.93
2019-03-20T13:52:49.899Z,11.87
2019-03-20T13:55:19.209Z,9.30
2019-03-20T13:57:48.426Z,11.77
2019-03-20T14:00:19.304Z,15.23
2019-03-20T14:02:48.545Z,11.53
2019-03-20T14:05:17.807Z,9.90
2019-03-20T14:07:47.130Z,11.73
2019-03-20T14:10:25.106Z,11.40
2019-03-20T14:12:47.162Z,14.00
2019-03-20T14:15:16.498Z,9.97
2019-03-20T14:17:45.743Z,11.87
2019-03-20T14:20:17.215Z,10.93
2019-03-20T14:22:46.534Z,9.57
2019-03-20T14:25:15.805Z,10.70
2019-03-20T14:27:45.104Z,7.97
2019-03-20T14:30:22.291Z,6.43
2019-03-20T14:32:51.523Z,7.07
2019-03-20T14:35:20.777Z,11.03
2019-03-20T14:37:50.100Z,12.07
2019-03-20T14:40:21.499Z,7.80
2019-03-20T14:42:50.951Z,8.83
2019-03-20T14:45:20.097Z,9.33
2019-03-20T14:47:49.454Z,11.60
2019-03-20T14:50:20.544Z,11.33
2019-03-20T14:52:49.781Z,10.07
2019-03-20T14:55:19.094Z,12.47
2019-03-20T14:57:48.355Z,9.67
2019-03-20T15:00:19.604Z,9.43
2019-03-20T15:02:48.850Z,9.57
2019-03-20T15:05:18.137Z,10.50
2019-03-20T15:07:47.350Z,7.47
2019-03-20T15:10:17.843Z,7.07
2019-03-20T15:12:47.083Z,8.90
2019-03-20T15:15:31.559Z,7.47
2019-03-20T15:18:00.775Z,10.23
2019-03-20T15:20:30.083Z,8.20
2019-03-20T15:22:59.373Z,8.53
2019-03-20T15:25:28.613Z,10.03
2019-03-20T15:27:57.991Z,9.40
2019-03-20T15:30:29.524Z,7.97
2019-03-20T15:32:56.523Z,10.10
2019-03-20T15:35:25.809Z,6.27
2019-03-20T15:37:58.235Z,7.73
2019-03-20T15:40:27.504Z,10.00
2019-03-20T15:42:56.739Z,10.20
2019-03-20T15:45:26.095Z,7.07
2019-03-20T15:47:55.310Z,8.07
2019-03-20T15:50:24.609Z,12.87
2019-03-20T15:52:53.829Z,11.10
2019-03-20T15:55:25.535Z,7.10
2019-03-20T15:57:54.797Z,9.33
2019-03-20T16:00:24.018Z,9.63
2019-03-20T16:02:55.402Z,7.90
2019-03-20T16:05:24.609Z,7.03
2019-03-20T16:07:53.906Z,9.80
2019-03-20T16:10:23.147Z,6.70
2019-03-20T16:12:52.468Z,7.00
2019-03-20T16:15:21.702Z,10.57
2019-03-20T16:17:50.927Z,10.67
2019-03-20T16:20:20.405Z,10.73
2019-03-20T16:22:49.735Z,7.83
2019-03-20T16:25:18.991Z,8.27
2019-03-20T16:27:48.329Z,9.23
2019-03-20T16:30:19.133Z,7.83
2019-03-20T16:32:48.389Z,8.20
2019-03-20T16:35:17.652Z,6.73
2019-03-20T16:37:46.995Z,7.07
2019-03-20T16:40:21.113Z,10.20
2019-03-20T16:42:50.497Z,8.70
2019-03-20T16:45:22.111Z,10.27
2019-03-20T16:47:51.324Z,7.47
2019-03-20T16:50:20.529Z,8.90
2019-03-20T16:52:49.826Z,5.57
2019-03-20T16:55:19.110Z,10.13
2019-03-20T16:57:48.347Z,6.67
2019-03-20T17:00:25.521Z,6.07
2019-03-20T17:02:54.781Z,8.57
2019-03-20T17:05:23.995Z,8.10
2019-03-20T17:07:53.413Z,6.60
2019-03-20T17:10:27.491Z,7.40
2019-03-20T17:12:56.724Z,5.23
2019-03-20T17:15:26.635Z,9.97
2019-03-20T17:17:55.896Z,9.97
2019-03-20T17:20:25.127Z,8.53
2019-03-20T17:22:54.629Z,7.70
2019-03-20T17:25:23.945Z,8.57
2019-03-20T17:27:53.169Z,7.87
2019-03-20T17:30:24.588Z,8.43
2019-03-20T17:32:53.882Z,7.83
2019-03-20T17:35:23.203Z,5.63
2019-03-20T17:37:52.487Z,7.37
2019-03-20T17:40:21.919Z,8.60
2019-03-20T17:42:51.133Z,10.40
2019-03-20T17:45:20.399Z,8.77
2019-03-20T17:47:49.688Z,11.17
2019-03-20T17:50:20.925Z,10.30
2019-03-20T17:52:50.236Z,10.77
2019-03-20T17:55:19.479Z,7.13
2019-03-20T17:57:48.663Z,7.70
2019-03-20T18:00:31.639Z,9.13
2019-03-20T18:03:01.165Z,7.67
2019-03-20T18:05:30.483Z,9.60
2019-03-20T18:07:59.765Z,10.40
2019-03-20T18:10:29.026Z,11.40
2019-03-20T18:12:58.261Z,8.20
2019-03-20T18:15:27.474Z,12.40
2019-03-20T18:17:56.859Z,8.37
2019-03-20T18:20:26.189Z,8.77
2019-03-20T18:22:55.589Z,9.53
2019-03-20T18:25:24.889Z,18.63
2019-03-20T18:27:54.178Z,13.60
2019-03-20T18:30:23.725Z,9.80
2019-03-20T18:32:53.026Z,13.43
2019-03-20T18:35:22.261Z,9.73
2019-03-20T18:37:53.898Z,8.43
2019-03-20T18:40:21.323Z,11.30
2019-03-20T18:42:50.648Z,9.97
2019-03-20T18:45:20.136Z,10.97
2019-03-20T18:47:49.400Z,10.47
2019-03-20T18:50:18.771Z,9.97
2019-03-20T18:52:48.201Z,9.13
2019-03-20T18:55:17.498Z,11.10
2019-03-20T18:57:46.722Z,11.23
2019-03-20T19:00:18.095Z,12.77
2019-03-20T19:02:47.385Z,9.17
2019-03-20T19:05:22.600Z,9.27
2019-03-20T19:07:51.890Z,8.80
2019-03-20T19:10:21.151Z,10.03
2019-03-20T19:12:50.364Z,9.97
2019-03-20T19:15:19.589Z,13.13
2019-03-20T19:17:48.788Z,9.07
2019-03-20T19:20:19.903Z,12.50
2019-03-20T19:22:47.260Z,10.03
2019-03-20T19:25:16.609Z,10.10
2019-03-20T19:27:45.797Z,10.33
2019-03-20T19:30:17.251Z,11.03
2019-03-20T19:32:46.497Z,11.13
2019-03-20T19:35:15.699Z,11.90
2019-03-20T19:37:44.939Z,8.87
2019-03-20T19:40:14.289Z,11.10
2019-03-20T19:42:43.547Z,10.37
2019-03-20T19:45:12.855Z,10.57
2019-03-20T19:47:42.063Z,11.87
2019-03-20T19:50:12.677Z,9.70
2019-03-20T19:52:42.347Z,12.37
2019-03-20T19:55:11.711Z,11.23
2019-03-20T19:57:40.985Z,9.77
2019-03-20T20:00:12.939Z,11.00
2019-03-20T20:02:42.137Z,11.47
2019-03-20T20:05:15.750Z,13.10
2019-03-20T20:07:40.664Z,12.80
2019-03-20T20:10:10.075Z,12.53
2019-03-20T20:12:39.299Z,11.20
2019-03-20T20:15:11.719Z,10.83
2019-03-20T20:17:41.128Z,13.97
2019-03-20T20:20:12.449Z,17.23
2019-03-20T20:22:41.773Z,13.57
2019-03-20T20:25:11.106Z,15.67
2019-03-20T20:27:40.401Z,15.40
2019-03-20T20:30:12.357Z,11.90
2019-03-20T20:32:41.567Z,18.23
2019-03-20T20:35:11.047Z,12.63
2019-03-20T20:37:40.262Z,13.80
2019-03-20T20:40:11.689Z,13.13
2019-03-20T20:42:43.282Z,17.00
2019-03-20T20:45:10.157Z,13.83
2019-03-20T20:47:39.374Z,15.27
2019-03-20T20:50:08.916Z,14.63
2019-03-20T20:52:38.207Z,17.37
2019-03-20T20:55:08.407Z,15.70
2019-03-20T20:57:37.765Z,17.40
2019-03-20T21:00:11.235Z,15.47
2019-03-20T21:02:40.452Z,14.50
2019-03-20T21:05:09.647Z,14.47
2019-03-20T21:07:38.957Z,13.93
2019-03-20T21:10:09.062Z,15.53
2019-03-20T21:12:38.328Z,18.43
2019-03-20T21:15:16.563Z,16.63
2019-03-20T21:18:09.332Z,17.60
2019-03-20T21:20:39.586Z,18.33
2019-03-20T21:23:49.093Z,15.60
2019-03-20T21:26:19.823Z,24.97
2019-03-20T21:29:16.027Z,18.63
2019-03-20T21:31:53.856Z,15.80
2019-03-20T21:35:00.012Z,19.77
2019-03-20T21:38:01.108Z,14.20
2019-03-20T21:40:32.942Z,20.97
2019-03-20T21:43:39.305Z,16.83
2019-03-20T21:46:48.109Z,19.97
2019-03-20T21:49:18.500Z,18.80
2019-03-20T21:51:48.874Z,16.07
2019-03-20T21:55:12.330Z,18.13
2019-03-20T21:58:08.798Z,17.63
2019-03-20T22:01:18.887Z,16.60
2019-03-20T22:03:49.295Z,24.33
2019-03-20T22:07:21.540Z,19.33
2019-03-20T22:10:41.744Z,21.07
2019-03-20T22:13:31.010Z,27.70
2019-03-20T22:16:23.529Z,23.37
2019-03-20T22:19:33.505Z,20.10
2019-03-20T22:22:55.721Z,19.73
2019-03-20T22:25:52.225Z,23.70
2019-03-20T22:29:07.965Z,24.37
2019-03-20T22:31:40.765Z,28.13
2019-03-20T22:34:41.299Z,25.57
2019-03-20T22:37:11.607Z,25.57
2019-03-20T22:40:34.397Z,26.87
2019-03-20T22:43:17.207Z,28.27
2019-03-20T22:46:34.099Z,30.30
2019-03-20T22:50:01.078Z,27.73
2019-03-20T22:53:05.885Z,31.20
2019-03-20T22:55:58.137Z,29.87
2019-03-20T22:58:42.510Z,30.33
2019-03-20T23:01:19.584Z,33.57
2019-03-20T23:03:54.822Z,32.57
2019-03-20T23:06:25.128Z,37.07
2019-03-20T23:08:55.398Z,34.77
2019-03-20T23:11:25.693Z,34.50
2019-03-20T23:13:56.005Z,33.80
2019-03-20T23:16:26.290Z,34.13
2019-03-20T23:18:56.526Z,36.30
2019-03-20T23:21:26.804Z,35.70
2019-03-20T23:23:57.084Z,39.97
2019-03-20T23:26:27.382Z,36.57
2019-03-20T23:28:57.624Z,35.50
2019-03-20T23:31:27.929Z,34.23
2019-03-20T23:33:58.291Z,35.50
2019-03-20T23:36:28.942Z,36.30
2019-03-20T23:38:59.244Z,38.07
2019-03-20T23:41:29.501Z,38.40
2019-03-20T23:43:59.796Z,36.93
2019-03-20T23:46:30.096Z,34.57
2019-03-20T23:49:18.384Z,32.57
2019-03-20T23:51:48.677Z,35.97
2019-03-20T23:54:22.298Z,37.60
2019-03-20T23:56:52.582Z,37.13
2019-03-20T23:59:22.884Z,39.93
